createdAt,value
2022-10-06T00:00:11.546Z,58.55
2022-10-06T00:02:39.311Z,64.85
2022-10-06T00:05:07.132Z,61.42
2022-10-06T00:07:36.228Z,64.28
2022-10-06T00:10:04.626Z,70.22
2022-10-06T00:12:39.357Z,61.15
2022-10-06T00:15:07.194Z,64.97
2022-10-06T00:17:35.032Z,60.10
2022-10-06T00:20:02.741Z,59.72
2022-10-06T00:22:41.258Z,63.22
2022-10-06T00:25:10.217Z,62.15
2022-10-06T00:27:39.745Z,70.40
2022-10-06T00:30:09.471Z,64.25
2022-10-06T00:32:37.271Z,67.38
2022-10-06T00:35:05.464Z,58.13
2022-10-06T00:37:36.238Z,60.42
2022-10-06T00:40:09.231Z,68.32
2022-10-06T00:42:50.080Z,56.40
2022-10-06T00:45:19.047Z,64.72
2022-10-06T00:47:46.711Z,66.85
2022-10-06T00:50:15.196Z,64.82
2022-10-06T00:52:43.415Z,60.30
2022-10-06T00:55:11.829Z,59.80
2022-10-06T00:57:40.288Z,53.47
2022-10-06T01:00:08.520Z,55.67
2022-10-06T01:02:45.520Z,69.47
2022-10-06T01:05:17.338Z,60.15
2022-10-06T01:07:45.210Z,60.38
2022-10-06T01:10:12.865Z,65.20
2022-10-06T01:12:40.631Z,50.92
2022-10-06T01:15:08.661Z,57.67
2022-10-06T01:17:44.908Z,58.05
2022-10-06T01:20:14.478Z,62.17
2022-10-06T01:22:44.089Z,55.65
2022-10-06T01:25:13.368Z,54.58
2022-10-06T01:27:42.670Z,64.68
2022-10-06T01:30:14.606Z,55.65
2022-10-06T01:32:42.592Z,52.42
2022-10-06T01:35:10.703Z,59.97
2022-10-06T01:37:39.801Z,61.10
2022-10-06T01:40:07.613Z,59.25
2022-10-06T01:42:36.776Z,55.17
2022-10-06T01:45:05.204Z,59.30
2022-10-06T01:47:33.934Z,58.08
2022-10-06T01:50:01.821Z,63.20
2022-10-06T01:52:30.970Z,51.42
2022-10-06T01:54:58.621Z,52.63
2022-10-06T01:57:26.578Z,59.08
2022-10-06T01:59:55.077Z,51.95
2022-10-06T02:02:24.181Z,52.80
2022-10-06T02:04:51.834Z,61.28
2022-10-06T02:07:19.929Z,53.00
2022-10-06T02:09:48.054Z,60.90
2022-10-06T02:12:17.676Z,56.85
2022-10-06T02:14:45.414Z,56.17
2022-10-06T02:17:13.067Z,60.90
2022-10-06T02:19:40.788Z,52.50
2022-10-06T02:22:08.449Z,60.65
2022-10-06T02:24:36.495Z,57.72
2022-10-06T02:27:05.288Z,55.67
2022-10-06T02:29:33.107Z,63.33
2022-10-06T02:32:01.357Z,59.45
2022-10-06T02:34:29.714Z,59.47
2022-10-06T02:36:57.759Z,55.45
2022-10-06T02:39:25.742Z,65.90
2022-10-06T02:41:53.384Z,62.03
2022-10-06T02:44:21.504Z,56.75
2022-10-06T02:46:49.593Z,73.00
2022-10-06T02:49:18.465Z,56.72
2022-10-06T02:51:46.099Z,58.38
2022-10-06T02:54:13.717Z,57.58
2022-10-06T02:56:41.411Z,65.07
2022-10-06T02:59:09.190Z,58.88
2022-10-06T03:01:38.033Z,56.05
2022-10-06T03:04:12.998Z,72.30
2022-10-06T03:06:42.281Z,64.65
2022-10-06T03:09:28.371Z,70.88
2022-10-06T03:11:57.000Z,63.90
2022-10-06T03:14:34.071Z,68.40
2022-10-06T03:17:01.988Z,66.50
2022-10-06T03:19:30.782Z,65.38
2022-10-06T03:21:59.222Z,66.43
2022-10-06T03:24:35.618Z,60.67
2022-10-06T03:27:03.454Z,59.90
2022-10-06T03:29:31.289Z,63.85
2022-10-06T03:31:59.384Z,59.88
2022-10-06T03:34:27.284Z,67.70
2022-10-06T03:36:56.910Z,61.30
2022-10-06T03:39:26.986Z,66.00
2022-10-06T03:41:54.819Z,65.43
2022-10-06T03:44:22.832Z,57.88
2022-10-06T03:46:51.355Z,61.53
2022-10-06T03:49:19.580Z,59.72
2022-10-06T03:51:47.620Z,57.15
2022-10-06T03:54:23.164Z,60.03
2022-10-06T03:56:54.485Z,64.18
2022-10-06T03:59:22.333Z,57.90
2022-10-06T04:01:53.011Z,59.70
2022-10-06T04:04:26.183Z,64.55
2022-10-06T04:06:59.180Z,62.60
2022-10-06T04:09:27.524Z,62.17
2022-10-06T04:11:55.216Z,58.50
2022-10-06T04:14:22.855Z,63.75
2022-10-06T04:16:51.949Z,66.65
2022-10-06T04:19:27.386Z,59.92
2022-10-06T04:21:56.559Z,60.33
2022-10-06T04:24:26.054Z,62.28
2022-10-06T04:27:14.014Z,67.85
2022-10-06T04:29:42.595Z,61.75
2022-10-06T04:32:10.913Z,62.17
2022-10-06T04:34:38.697Z,68.97
2022-10-06T04:37:06.710Z,70.35
2022-10-06T04:39:35.168Z,63.78
2022-10-06T04:42:03.324Z,59.45
2022-10-06T04:44:32.114Z,58.03
2022-10-06T04:47:02.266Z,69.47
2022-10-06T04:49:29.924Z,59.65
2022-10-06T04:51:58.038Z,69.28
2022-10-06T04:54:31.351Z,66.97
2022-10-06T04:57:01.636Z,66.30
2022-10-06T04:59:49.814Z,67.97
2022-10-06T05:02:19.824Z,74.63
2022-10-06T05:04:51.318Z,69.90
2022-10-06T05:07:20.408Z,73.90
2022-10-06T05:09:48.106Z,68.07
2022-10-06T05:12:15.736Z,66.13
2022-10-06T05:14:46.818Z,71.85
2022-10-06T05:17:15.126Z,66.07
2022-10-06T05:19:43.269Z,67.00
2022-10-06T05:22:10.906Z,73.05
2022-10-06T05:24:38.524Z,60.47
2022-10-06T05:27:06.599Z,65.78
2022-10-06T05:29:35.529Z,68.63
2022-10-06T05:32:05.672Z,70.25
2022-10-06T05:34:34.746Z,64.15
2022-10-06T05:37:02.461Z,68.15
2022-10-06T05:39:30.266Z,66.85
2022-10-06T05:41:59.185Z,62.17
2022-10-06T05:44:27.744Z,67.88
2022-10-06T05:46:58.242Z,66.38
2022-10-06T05:49:26.063Z,65.93
2022-10-06T05:51:57.958Z,62.58
2022-10-06T05:54:28.909Z,59.13
2022-10-06T05:56:56.624Z,64.20
2022-10-06T05:59:24.334Z,69.30
2022-10-06T06:01:54.492Z,64.55
2022-10-06T06:04:34.128Z,56.08
2022-10-06T06:07:02.215Z,67.18
2022-10-06T06:09:29.918Z,66.32
2022-10-06T06:12:02.107Z,62.55
2022-10-06T06:14:58.816Z,54.05
2022-10-06T06:17:33.965Z,64.88
2022-10-06T06:20:04.414Z,64.15
2022-10-06T06:22:32.077Z,57.15
2022-10-06T06:24:59.733Z,59.97
2022-10-06T06:27:27.400Z,64.82
2022-10-06T06:29:58.262Z,58.05
2022-10-06T06:32:27.896Z,58.35
2022-10-06T06:34:55.859Z,60.25
2022-10-06T06:37:23.592Z,61.42
2022-10-06T06:39:51.353Z,54.05
2022-10-06T06:42:19.066Z,57.53
2022-10-06T06:44:49.535Z,59.55
2022-10-06T06:47:26.765Z,54.72
2022-10-06T06:49:55.093Z,66.03
2022-10-06T06:52:26.044Z,60.47
2022-10-06T06:54:54.042Z,51.92
2022-10-06T06:57:22.303Z,56.40
2022-10-06T06:59:52.612Z,61.20
2022-10-06T07:02:21.707Z,58.13
2022-10-06T07:04:49.469Z,57.65
2022-10-06T07:07:21.099Z,61.72
2022-10-06T07:09:48.946Z,56.13
2022-10-06T07:12:18.626Z,55.33
2022-10-06T07:15:10.634Z,55.90
2022-10-06T07:18:03.307Z,56.22
2022-10-06T07:20:50.528Z,50.72
2022-10-06T07:23:38.387Z,59.40
2022-10-06T07:26:10.225Z,52.78
2022-10-06T07:28:37.963Z,48.97
2022-10-06T07:31:06.451Z,53.55
2022-10-06T07:33:34.248Z,60.40
2022-10-06T07:36:05.118Z,54.80
2022-10-06T07:38:34.298Z,58.70
2022-10-06T07:46:22.859Z,53.85
2022-10-06T07:49:10.935Z,57.50
2022-10-06T07:51:38.634Z,61.45
2022-10-06T07:54:08.917Z,56.85
2022-10-06T07:56:59.549Z,54.70
2022-10-06T07:59:27.298Z,56.08
2022-10-06T08:01:55.006Z,43.47
2022-10-06T08:04:22.714Z,54.25
2022-10-06T08:06:50.382Z,54.30
2022-10-06T08:09:18.039Z,49.45
2022-10-06T08:11:47.349Z,52.53
2022-10-06T08:14:15.178Z,55.85
2022-10-06T08:16:42.841Z,60.00
2022-10-06T08:19:11.644Z,54.55
2022-10-06T08:21:39.786Z,56.90
2022-10-06T08:24:07.463Z,63.53
2022-10-06T08:26:35.976Z,58.42
2022-10-06T08:29:03.774Z,55.50
2022-10-06T08:31:32.214Z,56.40
2022-10-06T08:34:00.069Z,54.58
2022-10-06T08:36:32.113Z,53.42
2022-10-06T08:39:00.937Z,65.05
2022-10-06T08:41:44.626Z,57.05
2022-10-06T08:44:16.648Z,52.53
2022-10-06T08:47:00.512Z,53.47
2022-10-06T08:49:33.948Z,54.10
2022-10-06T08:52:07.796Z,58.85
2022-10-06T08:54:58.943Z,60.38
2022-10-06T08:57:47.200Z,52.37
2022-10-06T09:00:21.131Z,47.25
2022-10-06T09:02:50.662Z,48.25
2022-10-06T09:05:25.262Z,57.58
2022-10-06T09:08:10.934Z,48.03
2022-10-06T09:10:58.852Z,48.60
2022-10-06T09:13:30.154Z,51.63
2022-10-06T09:16:00.238Z,47.38
2022-10-06T09:18:49.868Z,51.70
2022-10-06T09:21:40.493Z,53.05
2022-10-06T09:24:11.997Z,49.03
2022-10-06T09:26:43.303Z,54.85
2022-10-06T09:29:10.981Z,54.40
2022-10-06T09:31:39.840Z,54.88
2022-10-06T09:34:20.851Z,50.35
2022-10-06T09:37:03.137Z,56.60
2022-10-06T09:39:33.556Z,59.70
2022-10-06T09:42:03.134Z,58.25
2022-10-06T09:44:57.323Z,50.13
2022-10-06T09:47:36.644Z,59.10
2022-10-06T09:50:04.479Z,55.00
2022-10-06T09:52:32.125Z,55.70
2022-10-06T09:55:17.147Z,47.83
2022-10-06T09:57:55.954Z,54.85
2022-10-06T10:00:27.003Z,62.03
2022-10-06T10:03:05.752Z,55.85
2022-10-06T10:05:34.434Z,50.00
2022-10-06T10:08:22.519Z,54.95
2022-10-06T10:10:51.195Z,56.20
2022-10-06T10:13:26.040Z,67.28
2022-10-06T10:16:01.233Z,56.90
2022-10-06T10:18:31.219Z,63.90
2022-10-06T10:21:00.252Z,56.08
2022-10-06T10:23:31.662Z,58.00
2022-10-06T10:26:18.751Z,50.92
2022-10-06T10:28:51.579Z,53.60
2022-10-06T10:31:25.646Z,44.25
2022-10-06T10:34:23.165Z,47.88
2022-10-06T10:36:55.143Z,57.25
2022-10-06T10:39:39.054Z,54.67
2022-10-06T10:42:12.864Z,65.22
2022-10-06T10:44:47.636Z,57.70
2022-10-06T10:47:23.003Z,51.42
2022-10-06T10:49:54.441Z,57.88
2022-10-06T10:52:23.941Z,56.67
2022-10-06T10:54:51.882Z,61.55
2022-10-06T10:57:22.486Z,66.07
2022-10-06T10:59:50.166Z,62.78
2022-10-06T11:02:20.561Z,63.88
2022-10-06T11:04:51.671Z,59.78
2022-10-06T11:07:29.444Z,55.77
2022-10-06T11:10:15.941Z,57.35
2022-10-06T11:12:43.542Z,58.28
2022-10-06T11:15:19.944Z,63.20
2022-10-06T11:17:50.339Z,61.65
2022-10-06T11:20:36.632Z,63.90
2022-10-06T11:23:24.537Z,65.38
2022-10-06T11:26:13.974Z,52.75
2022-10-06T11:28:50.919Z,60.38
2022-10-06T11:31:36.769Z,57.40
2022-10-06T11:34:06.584Z,54.63
2022-10-06T11:36:34.966Z,53.92
2022-10-06T11:39:20.760Z,52.78
2022-10-06T11:41:51.985Z,66.93
2022-10-06T11:44:31.490Z,70.13
2022-10-06T11:47:02.237Z,57.15
2022-10-06T11:49:29.966Z,57.42
2022-10-06T11:52:00.134Z,52.75
2022-10-06T11:54:40.506Z,61.57
2022-10-06T11:57:27.983Z,50.92
2022-10-06T12:00:03.010Z,60.15
2022-10-06T12:02:34.639Z,66.10
2022-10-06T12:05:37.413Z,60.45
2022-10-06T12:07:59.204Z,70.72
2022-10-06T12:10:29.894Z,47.40
2022-10-06T12:13:51.308Z,59.83
2022-10-06T12:19:23.277Z,53.35
2022-10-06T12:21:51.017Z,61.58
2022-10-06T12:24:37.348Z,63.30
2022-10-06T12:27:04.959Z,54.97
2022-10-06T12:29:43.458Z,60.88
2022-10-06T12:32:25.504Z,57.10
2022-10-06T12:35:08.670Z,43.85
2022-10-06T12:37:42.621Z,51.50
2022-10-06T12:40:29.050Z,44.35
2022-10-06T12:43:11.251Z,64.47
2022-10-06T12:45:45.638Z,54.15
2022-10-06T12:48:17.189Z,60.63
2022-10-06T12:50:45.490Z,59.80
2022-10-06T12:53:17.420Z,52.85
2022-10-06T12:56:00.952Z,60.80
2022-10-06T12:58:30.082Z,67.05
2022-10-06T13:01:02.034Z,67.70
2022-10-06T13:03:30.254Z,63.60
2022-10-06T13:06:03.376Z,56.70
2022-10-06T13:08:32.488Z,61.78
2022-10-06T13:11:18.669Z,54.75
2022-10-06T13:13:47.015Z,62.67
2022-10-06T13:16:15.300Z,52.70
2022-10-06T13:18:43.134Z,50.95
2022-10-06T13:21:16.099Z,57.42
2022-10-06T13:23:44.182Z,51.35
2022-10-06T13:26:14.895Z,59.65
2022-10-06T13:28:47.615Z,60.45
2022-10-06T13:31:30.277Z,53.78
2022-10-06T13:34:00.360Z,53.17
2022-10-06T13:36:29.071Z,52.65
2022-10-06T13:38:57.038Z,62.85
2022-10-06T13:41:31.938Z,46.30
2022-10-06T13:44:14.621Z,49.47
2022-10-06T13:46:45.166Z,51.63
2022-10-06T13:49:19.002Z,50.70
2022-10-06T13:51:48.974Z,55.83
2022-10-06T13:54:32.593Z,48.03
2022-10-06T13:57:00.233Z,43.47
2022-10-06T13:59:27.911Z,52.95
2022-10-06T14:01:56.225Z,57.80
2022-10-06T14:04:24.008Z,47.97
2022-10-06T14:06:54.261Z,49.92
2022-10-06T14:09:24.425Z,51.35
2022-10-06T14:12:01.641Z,59.20
2022-10-06T14:14:29.970Z,62.15
2022-10-06T14:16:58.328Z,62.13
2022-10-06T14:19:40.622Z,65.70
2022-10-06T14:22:28.251Z,60.05
2022-10-06T14:24:55.970Z,64.07
2022-10-06T14:27:23.595Z,63.70
2022-10-06T14:29:51.197Z,56.55
2022-10-06T14:32:19.562Z,57.63
2022-10-06T14:34:47.267Z,70.45
2022-10-06T14:37:17.886Z,57.88
2022-10-06T14:39:46.123Z,54.92
2022-10-06T14:42:15.525Z,56.75
2022-10-06T14:44:43.289Z,58.78
2022-10-06T14:47:10.979Z,68.50
2022-10-06T14:49:38.696Z,56.53
2022-10-06T14:52:09.066Z,71.53
2022-10-06T14:54:36.988Z,75.60
2022-10-06T14:57:04.932Z,63.92
2022-10-06T14:59:32.635Z,51.97
2022-10-06T15:02:00.727Z,43.13
2022-10-06T15:04:28.411Z,55.85
2022-10-06T15:07:14.771Z,53.70
2022-10-06T15:09:42.785Z,53.50
2022-10-06T15:12:10.421Z,54.50
2022-10-06T15:14:39.940Z,42.75
2022-10-06T15:17:07.823Z,52.70
2022-10-06T15:19:35.448Z,49.50
2022-10-06T15:22:04.662Z,61.60
2022-10-06T15:24:32.347Z,58.20
2022-10-06T15:27:26.552Z,52.65
2022-10-06T15:29:54.335Z,53.00
2022-10-06T15:32:22.584Z,62.95
2022-10-06T15:34:52.383Z,59.35
2022-10-06T15:37:20.137Z,59.35
2022-10-06T15:39:47.938Z,63.63
2022-10-06T15:42:18.646Z,51.60
2022-10-06T15:44:46.379Z,50.90
2022-10-06T15:47:14.125Z,50.35
2022-10-06T15:49:41.868Z,56.08
2022-10-06T15:52:11.377Z,57.75
2022-10-06T15:54:48.667Z,54.88
2022-10-06T15:57:20.700Z,49.72
2022-10-06T15:59:49.191Z,49.67
2022-10-06T16:02:17.672Z,51.65
2022-10-06T16:05:04.848Z,50.53
2022-10-06T16:07:32.800Z,40.67
2022-10-06T16:10:00.518Z,39.92
2022-10-06T16:12:28.633Z,44.03
2022-10-06T16:14:56.293Z,44.15
2022-10-06T16:17:23.947Z,48.13
2022-10-06T16:19:51.544Z,44.65
2022-10-06T16:22:19.865Z,38.35
2022-10-06T16:24:47.554Z,49.15
2022-10-06T16:27:15.522Z,42.42
2022-10-06T16:29:43.490Z,40.53
2022-10-06T16:32:11.197Z,38.75
2022-10-06T16:34:38.817Z,46.40
2022-10-06T16:37:06.429Z,43.15
2022-10-06T16:39:34.039Z,43.38
2022-10-06T16:42:01.734Z,37.47
2022-10-06T16:44:29.405Z,43.33
2022-10-06T16:46:57.138Z,40.90
2022-10-06T16:49:24.870Z,39.10
2022-10-06T16:51:52.542Z,37.83
2022-10-06T16:54:20.895Z,33.67
2022-10-06T16:56:53.829Z,41.42
2022-10-06T16:59:28.791Z,41.40
2022-10-06T17:01:56.471Z,41.58
2022-10-06T17:04:25.185Z,36.95
2022-10-06T17:06:54.297Z,33.45
2022-10-06T17:09:29.046Z,43.30
2022-10-06T17:11:58.361Z,38.67
2022-10-06T17:14:26.473Z,46.55
2022-10-06T17:16:55.847Z,43.75
2022-10-06T17:19:24.937Z,33.03
2022-10-06T17:21:58.270Z,40.30
2022-10-06T17:24:28.490Z,53.25
2022-10-06T17:26:57.610Z,35.75
2022-10-06T17:29:25.956Z,42.63
2022-10-06T17:31:56.610Z,35.28
2022-10-06T17:34:29.121Z,40.65
2022-10-06T17:36:59.862Z,37.60
2022-10-06T17:39:27.542Z,38.85
2022-10-06T17:41:55.443Z,37.67
2022-10-06T17:44:26.038Z,34.10
2022-10-06T17:46:55.429Z,43.08
2022-10-06T17:49:24.207Z,43.58
2022-10-06T17:51:52.847Z,40.58
2022-10-06T17:54:21.832Z,38.88
2022-10-06T17:56:50.796Z,40.03
2022-10-06T17:59:19.969Z,40.45
2022-10-06T18:01:47.706Z,33.83
2022-10-06T18:04:16.218Z,37.92
2022-10-06T18:06:44.768Z,42.65
2022-10-06T18:09:12.999Z,44.67
2022-10-06T18:12:00.127Z,31.70
2022-10-06T18:14:28.956Z,49.67
2022-10-06T18:16:58.469Z,43.08
2022-10-06T18:19:26.578Z,39.92
2022-10-06T18:21:56.553Z,43.30
2022-10-06T18:24:28.380Z,38.97
2022-10-06T18:26:57.426Z,36.25
2022-10-06T18:29:28.071Z,45.38
2022-10-06T18:32:01.359Z,36.65
2022-10-06T18:37:24.560Z,41.28
2022-10-06T18:39:52.314Z,44.08
2022-10-06T18:42:20.100Z,47.08
2022-10-06T18:45:06.196Z,51.05
2022-10-06T18:47:52.495Z,46.00
2022-10-06T18:50:20.216Z,55.92
2022-10-06T18:52:47.887Z,48.33
2022-10-06T18:55:15.581Z,50.08
2022-10-06T18:57:45.131Z,54.13
2022-10-06T19:00:13.370Z,49.53
2022-10-06T19:02:44.872Z,55.08
2022-10-06T19:05:15.237Z,54.10
2022-10-06T19:07:43.587Z,50.70
2022-10-06T19:10:11.499Z,57.08
2022-10-06T19:12:39.257Z,42.83
2022-10-06T19:15:09.950Z,47.88
2022-10-06T19:17:41.092Z,40.50
2022-10-06T19:20:10.887Z,55.55
2022-10-06T19:22:39.560Z,53.78
2022-10-06T19:25:08.025Z,57.88
2022-10-06T19:27:36.613Z,65.90
2022-10-06T19:30:04.832Z,50.97
2022-10-06T19:32:32.871Z,56.97
2022-10-06T19:35:00.934Z,55.28
2022-10-06T19:37:29.816Z,59.88
2022-10-06T19:39:58.565Z,54.10
2022-10-06T19:42:45.598Z,55.10
2022-10-06T19:45:14.881Z,71.22
2022-10-06T19:47:42.978Z,61.08
2022-10-06T19:50:12.826Z,65.70
2022-10-06T19:52:43.920Z,63.85
2022-10-06T19:55:11.624Z,64.00
2022-10-06T19:57:39.778Z,62.45
2022-10-06T20:00:08.711Z,62.72
2022-10-06T20:02:44.326Z,66.63
2022-10-06T20:05:13.742Z,67.20
2022-10-06T20:07:42.470Z,69.93
2022-10-06T20:10:11.918Z,69.57
2022-10-06T20:12:41.564Z,63.38
2022-10-06T20:15:09.969Z,69.60
2022-10-06T20:17:37.950Z,70.50
2022-10-06T20:20:06.253Z,79.05
2022-10-06T20:22:34.437Z,61.00
2022-10-06T20:25:02.657Z,72.95
2022-10-06T20:27:30.545Z,68.30
2022-10-06T20:29:58.292Z,65.68
2022-10-06T20:32:26.029Z,65.05
2022-10-06T20:34:53.866Z,60.92
2022-10-06T20:37:21.477Z,62.80
2022-10-06T20:40:07.836Z,70.72
2022-10-06T20:42:35.494Z,62.58
2022-10-06T20:45:03.418Z,60.58
2022-10-06T20:47:31.025Z,68.00
2022-10-06T20:49:58.653Z,57.22
2022-10-06T20:52:26.250Z,75.60
2022-10-06T20:54:53.911Z,60.28
2022-10-06T20:57:21.562Z,61.60
2022-10-06T20:59:49.195Z,73.68
2022-10-06T21:02:16.929Z,66.97
2022-10-06T21:04:45.172Z,65.32
2022-10-06T21:07:12.939Z,59.75
2022-10-06T21:09:40.635Z,71.50
2022-10-06T21:12:08.493Z,70.20
2022-10-06T21:14:37.464Z,65.90
2022-10-06T21:17:05.887Z,64.50
2022-10-06T21:19:38.040Z,72.32
2022-10-06T21:22:06.158Z,73.60
2022-10-06T21:24:33.791Z,75.22
2022-10-06T21:27:01.489Z,66.32
2022-10-06T21:29:29.165Z,68.43
2022-10-06T21:31:56.829Z,64.65
2022-10-06T21:34:24.511Z,63.85
2022-10-06T21:36:52.164Z,71.70
2022-10-06T21:39:19.837Z,64.32
2022-10-06T21:41:47.491Z,64.15
2022-10-06T21:44:16.571Z,60.83
2022-10-06T21:46:51.396Z,59.50
2022-10-06T21:49:20.205Z,66.93
2022-10-06T21:51:52.190Z,59.88
2022-10-06T21:54:20.409Z,64.85
2022-10-06T21:56:48.130Z,60.90
2022-10-06T21:59:16.011Z,60.15
2022-10-06T22:01:44.592Z,58.15
2022-10-06T22:04:14.297Z,59.35
2022-10-06T22:06:42.742Z,64.85
2022-10-06T22:09:12.612Z,52.35
2022-10-06T22:11:40.792Z,61.35
2022-10-06T22:14:10.820Z,63.10
2022-10-06T22:16:38.752Z,56.50
2022-10-06T22:19:07.392Z,58.45
2022-10-06T22:21:38.966Z,60.30
2022-10-06T22:24:11.394Z,61.67
2022-10-06T22:26:40.090Z,60.45
2022-10-06T22:29:08.945Z,63.83
2022-10-06T22:31:38.283Z,69.82
2022-10-06T22:34:06.415Z,63.00
2022-10-06T22:36:34.494Z,63.38
2022-10-06T22:39:02.523Z,63.55
2022-10-06T22:41:30.351Z,57.42
2022-10-06T22:43:58.989Z,62.78
2022-10-06T22:46:28.297Z,57.85
2022-10-06T22:48:55.975Z,53.10
2022-10-06T22:51:23.860Z,59.83
2022-10-06T22:53:58.811Z,57.85
2022-10-06T22:56:27.484Z,53.58
2022-10-06T22:58:55.143Z,55.50
2022-10-06T23:01:22.883Z,58.45
2022-10-06T23:03:50.563Z,57.38
2022-10-06T23:06:18.368Z,61.97
2022-10-06T23:08:46.271Z,61.22
2022-10-06T23:11:15.159Z,57.75
2022-10-06T23:13:46.561Z,53.95
2022-10-06T23:16:15.168Z,56.97
2022-10-06T23:18:43.707Z,60.55
2022-10-06T23:21:17.490Z,51.42
2022-10-06T23:23:45.544Z,51.58
2022-10-06T23:26:14.790Z,56.13
2022-10-06T23:28:42.923Z,52.88
2022-10-06T23:31:11.511Z,50.65
2022-10-06T23:33:39.433Z,54.38
2022-10-06T23:36:08.822Z,55.95
2022-10-06T23:38:37.250Z,56.70
2022-10-06T23:41:05.327Z,58.25
2022-10-06T23:43:33.368Z,51.17
2022-10-06T23:46:01.064Z,45.05
2022-10-06T23:48:28.782Z,50.55
2022-10-06T23:51:00.708Z,47.20
2022-10-06T23:53:28.859Z,43.58
2022-10-06T23:55:56.512Z,44.15
2022-10-06T23:58:24.270Z,48.25
